sensor_id;sensor_type;location;lat;lon;timestamp;pressure;altitude;pressure_sealevel;temperature;humidity
73103;BME280;61294;65.988;29.172;2023-01-15T00:01:31;96616.53;;;-3.50;100.00
73103;BME280;61294;65.988;29.172;2023-01-15T00:04:06;96612.34;;;-3.44;100.00
73103;BME280;61294;65.988;29.172;2023-01-15T00:06:41;96618.41;;;-3.41;100.00
73103;BME280;61294;65.988;29.172;2023-01-15T00:09:15;96606.16;;;-3.56;100.00
73103;BME280;61294;65.988;29.172;2023-01-15T00:11:52;96611.13;;;-3.64;100.00
73103;BME280;61294;65.988;29.172;2023-01-15T00:14:29;96602.31;;;-3.78;100.00
73103;BME280;61294;65.988;29.172;2023-01-15T00:17:25;96609.53;;;-3.57;100.00
73103;BME280;61294;65.988;29.172;2023-01-15T00:20:24;96594.78;;;-3.67;100.00
73103;BME280;61294;65.988;29.172;2023-01-15T00:22:58;96601.59;;;-3.69;100.00
73103;BME280;61294;65.988;29.172;2023-01-15T00:28:34;96604.16;;;-3.69;100.00
73103;BME280;61294;65.988;29.172;2023-01-15T00:31:04;96585.09;;;-3.81;100.00
73103;BME280;61294;65.988;29.172;2023-01-15T00:33:54;96592.78;;;-3.82;100.00
73103;BME280;61294;65.988;29.172;2023-01-15T00:36:31;96598.13;;;-3.73;100.00
73103;BME280;61294;65.988;29.172;2023-01-15T00:39:09;96611.09;;;-3.65;100.00
73103;BME280;61294;65.988;29.172;2023-01-15T00:41:37;96585.09;;;-3.81;100.00
73103;BME280;61294;65.988;29.172;2023-01-15T00:44:15;96588.59;;;-3.77;100.00
73103;BME280;61294;65.988;29.172;2023-01-15T00:46:49;96596.31;;;-3.77;100.00
73103;BME280;61294;65.988;29.172;2023-01-15T00:49:29;96597.19;;;-3.76;100.00
73103;BME280;61294;65.988;29.172;2023-01-15T00:51:57;96627.47;;;-3.63;100.00
73103;BME280;61294;65.988;29.172;2023-01-15T00:54:23;96623.16;;;-3.64;100.00
73103;BME280;61294;65.988;29.172;2023-01-15T00:56:48;96617.91;;;-3.70;100.00
73103;BME280;61294;65.988;29.172;2023-01-15T00:59:17;96611.81;;;-3.74;100.00
73103;BME280;61294;65.988;29.172;2023-01-15T01:01:43;96610.97;;;-3.73;100.00
73103;BME280;61294;65.988;29.172;2023-01-15T01:04:12;96612.81;;;-3.67;100.00
73103;BME280;61294;65.988;29.172;2023-01-15T01:06:38;96588.53;;;-3.82;100.00
73103;BME280;61294;65.988;29.172;2023-01-15T01:09:04;96623.09;;;-3.67;100.00
73103;BME280;61294;65.988;29.172;2023-01-15T01:11:30;96602.28;;;-3.79;100.00
73103;BME280;61294;65.988;29.172;2023-01-15T01:13:59;96605.84;;;-3.73;100.00
73103;BME280;61294;65.988;29.172;2023-01-15T01:16:37;96604.09;;;-3.74;100.00
73103;BME280;61294;65.988;29.172;2023-01-15T01:19:18;96616.13;;;-3.73;100.00
73103;BME280;61294;65.988;29.172;2023-01-15T01:21:48;96610.75;;;-3.85;100.00
73103;BME280;61294;65.988;29.172;2023-01-15T01:24:16;96613.34;;;-3.84;100.00
73103;BME280;61294;65.988;29.172;2023-01-15T01:26:43;96621.03;;;-3.85;100.00
73103;BME280;61294;65.988;29.172;2023-01-15T01:29:16;96618.50;;;-3.82;100.00
73103;BME280;61294;65.988;29.172;2023-01-15T01:31:49;96613.47;;;-3.77;100.00
73103;BME280;61294;65.988;29.172;2023-01-15T01:34:19;96619.47;;;-3.77;100.00
73103;BME280;61294;65.988;29.172;2023-01-15T01:36:44;96603.97;;;-3.82;100.00
73103;BME280;61294;65.988;29.172;2023-01-15T01:39:18;96619.56;;;-3.72;100.00
73103;BME280;61294;65.988;29.172;2023-01-15T01:41:54;96616.16;;;-3.71;100.00
73103;BME280;61294;65.988;29.172;2023-01-15T01:47:38;96592.56;;;-3.96;100.00
73103;BME280;61294;65.988;29.172;2023-01-15T01:50:19;96583.19;;;-3.92;100.00
73103;BME280;61294;65.988;29.172;2023-01-15T01:52:58;96604.03;;;-3.77;100.00
73103;BME280;61294;65.988;29.172;2023-01-15T01:55:26;96581.50;;;-3.92;100.00
73103;BME280;61294;65.988;29.172;2023-01-15T01:57:55;96586.78;;;-3.83;100.00
73103;BME280;61294;65.988;29.172;2023-01-15T02:00:46;96595.44;;;-3.79;100.00
73103;BME280;61294;65.988;29.172;2023-01-15T02:03:13;96578.25;;;-3.82;100.00
73103;BME280;61294;65.988;29.172;2023-01-15T02:05:50;96569.31;;;-3.99;100.00
73103;BME280;61294;65.988;29.172;2023-01-15T02:08:23;96571.13;;;-3.93;100.00
73103;BME280;61294;65.988;29.172;2023-01-15T02:10:54;96583.38;;;-3.82;100.00
73103;BME280;61294;65.988;29.172;2023-01-15T02:13:39;96592.13;;;-3.73;100.00
73103;BME280;61294;65.988;29.172;2023-01-15T02:16:41;96570.44;;;-3.86;100.00
73103;BME280;61294;65.988;29.172;2023-01-15T02:19:40;96582.59;;;-3.77;100.00
73103;BME280;61294;65.988;29.172;2023-01-15T02:22:39;96581.81;;;-3.73;100.00
73103;BME280;61294;65.988;29.172;2023-01-15T02:28:32;96569.59;;;-3.84;100.00
73103;BME280;61294;65.988;29.172;2023-01-15T02:34:43;96574.81;;;-3.81;100.00
73103;BME280;61294;65.988;29.172;2023-01-15T02:37:32;96592.06;;;-3.75;100.00
73103;BME280;61294;65.988;29.172;2023-01-15T02:40:07;96561.00;;;-3.86;100.00
73103;BME280;61294;65.988;29.172;2023-01-15T02:42:35;96598.16;;;-3.70;100.00
73103;BME280;61294;65.988;29.172;2023-01-15T02:45:03;96567.78;;;-3.89;100.00
73103;BME280;61294;65.988;29.172;2023-01-15T02:47:34;96589.47;;;-3.76;100.00
73103;BME280;61294;65.988;29.172;2023-01-15T02:50:08;96577.53;;;-3.73;100.00
73103;BME280;61294;65.988;29.172;2023-01-15T02:52:48;96562.81;;;-3.80;100.00
73103;BME280;61294;65.988;29.172;2023-01-15T02:55:26;96555.97;;;-3.79;100.00
73103;BME280;61294;65.988;29.172;2023-01-15T02:58:00;96558.50;;;-3.81;100.00
73103;BME280;61294;65.988;29.172;2023-01-15T03:00:30;96561.16;;;-3.76;100.00
73103;BME280;61294;65.988;29.172;2023-01-15T03:03:08;96555.19;;;-3.75;100.00
73103;BME280;61294;65.988;29.172;2023-01-15T03:05:56;96569.06;;;-3.67;100.00
73103;BME280;61294;65.988;29.172;2023-01-15T03:08:34;96552.66;;;-3.72;100.00
73103;BME280;61294;65.988;29.172;2023-01-15T03:11:14;96565.63;;;-3.68;100.00
73103;BME280;61294;65.988;29.172;2023-01-15T03:16:46;96557.03;;;-3.67;100.00
73103;BME280;61294;65.988;29.172;2023-01-15T03:22:27;96561.34;;;-3.67;100.00
73103;BME280;61294;65.988;29.172;2023-01-15T03:25:00;96556.25;;;-3.64;100.00
73103;BME280;61294;65.988;29.172;2023-01-15T03:27:27;96556.25;;;-3.64;100.00
73103;BME280;61294;65.988;29.172;2023-01-15T03:29:58;96550.31;;;-3.60;100.00
73103;BME280;61294;65.988;29.172;2023-01-15T03:32:26;96540.81;;;-3.64;100.00
73103;BME280;61294;65.988;29.172;2023-01-15T03:34:54;96540.72;;;-3.70;100.00
73103;BME280;61294;65.988;29.172;2023-01-15T03:37:23;96537.25;;;-3.69;100.00
73103;BME280;61294;65.988;29.172;2023-01-15T03:39:50;96543.31;;;-3.69;100.00
73103;BME280;61294;65.988;29.172;2023-01-15T03:45:02;96541.44;;;-3.77;100.00
73103;BME280;61294;65.988;29.172;2023-01-15T03:50:31;96550.13;;;-3.69;100.00
73103;BME280;61294;65.988;29.172;2023-01-15T03:53:22;96538.09;;;-3.73;100.00
73103;BME280;61294;65.988;29.172;2023-01-15T04:01:18;96541.56;;;-3.70;100.00
73103;BME280;61294;65.988;29.172;2023-01-15T04:03:46;96544.13;;;-3.70;100.00
73103;BME280;61294;65.988;29.172;2023-01-15T04:06:14;96521.59;;;-3.85;100.00
73103;BME280;61294;65.988;29.172;2023-01-15T04:08:42;96511.19;;;-3.89;100.00
73103;BME280;61294;65.988;29.172;2023-01-15T04:11:10;96544.94;;;-3.72;100.00
73103;BME280;61294;65.988;29.172;2023-01-15T04:13:35;96544.09;;;-3.71;100.00
73103;BME280;61294;65.988;29.172;2023-01-15T04:16:01;96543.31;;;-3.69;100.00
73103;BME280;61294;65.988;29.172;2023-01-15T04:18:27;96549.19;;;-3.76;100.00
73103;BME280;61294;65.988;29.172;2023-01-15T04:20:53;96518.13;;;-3.87;100.00
73103;BME280;61294;65.988;29.172;2023-01-15T04:23:20;96545.88;;;-3.69;100.00
73103;BME280;61294;65.988;29.172;2023-01-15T04:25:46;96551.81;;;-3.71;100.00
73103;BME280;61294;65.988;29.172;2023-01-15T04:28:12;96518.09;;;-3.88;100.00
73103;BME280;61294;65.988;29.172;2023-01-15T04:30:37;96523.34;;;-3.81;100.00
73103;BME280;61294;65.988;29.172;2023-01-15T04:33:04;96523.34;;;-3.81;100.00
73103;BME280;61294;65.988;29.172;2023-01-15T04:35:29;96541.59;;;-3.68;100.00
73103;BME280;61294;65.988;29.172;2023-01-15T04:37:59;96535.50;;;-3.73;100.00
73103;BME280;61294;65.988;29.172;2023-01-15T04:40:26;96532.13;;;-3.69;100.00
73103;BME280;61294;65.988;29.172;2023-01-15T04:43:10;96533.78;;;-3.73;100.00
73103;BME280;61294;65.988;29.172;2023-01-15T04:45:55;96538.16;;;-3.69;100.00
73103;BME280;61294;65.988;29.172;2023-01-15T04:48:21;96507.84;;;-3.85;100.00
73103;BME280;61294;65.988;29.172;2023-01-15T04:50:48;96543.34;;;-3.66;100.00
73103;BME280;61294;65.988;29.172;2023-01-15T04:53:13;96518.31;;;-3.76;100.00
73103;BME280;61294;65.988;29.172;2023-01-15T04:55:39;96544.31;;;-3.60;100.00
73103;BME280;61294;65.988;29.172;2023-01-15T04:58:05;96546.03;;;-3.58;100.00
73103;BME280;61294;65.988;29.172;2023-01-15T05:00:31;96521.81;;;-3.71;100.00
73103;BME280;61294;65.988;29.172;2023-01-15T05:02:57;96539.09;;;-3.62;100.00
73103;BME280;61294;65.988;29.172;2023-01-15T05:05:22;96514.03;;;-3.75;100.00
73103;BME280;61294;65.988;29.172;2023-01-15T05:07:48;96514.06;;;-3.72;100.00
73103;BME280;61294;65.988;29.172;2023-01-15T05:10:14;96536.59;;;-3.60;100.00
73103;BME280;61294;65.988;29.172;2023-01-15T05:12:40;96539.94;;;-3.65;100.00
73103;BME280;61294;65.988;29.172;2023-01-15T05:15:06;96542.59;;;-3.60;100.00
73103;BME280;61294;65.988;29.172;2023-01-15T05:17:32;96540.00;;;-3.61;100.00
73103;BME280;61294;65.988;29.172;2023-01-15T05:19:58;96543.41;;;-3.61;100.00
73103;BME280;61294;65.988;29.172;2023-01-15T05:22:24;96522.69;;;-3.70;100.00
73103;BME280;61294;65.988;29.172;2023-01-15T05:24:50;96543.41;;;-3.62;100.00
73103;BME280;61294;65.988;29.172;2023-01-15T05:27:16;96514.03;;;-3.75;100.00
73103;BME280;61294;65.988;29.172;2023-01-15T05:29:42;96535.69;;;-3.61;100.00
73103;BME280;61294;65.988;29.172;2023-01-15T05:32:08;96514.94;;;-3.73;100.00
73103;BME280;61294;65.988;29.172;2023-01-15T05:34:33;96526.22;;;-3.64;100.00
73103;BME280;61294;65.988;29.172;2023-01-15T05:36:59;96511.50;;;-3.72;100.00
73103;BME280;61294;65.988;29.172;2023-01-15T05:39:25;96538.28;;;-3.59;100.00
73103;BME280;61294;65.988;29.172;2023-01-15T05:41:51;96525.41;;;-3.61;100.00
73103;BME280;61294;65.988;29.172;2023-01-15T05:44:20;96534.88;;;-3.58;100.00
73103;BME280;61294;65.988;29.172;2023-01-15T05:46:47;96528.88;;;-3.59;100.00
73103;BME280;61294;65.988;29.172;2023-01-15T05:49:16;96521.06;;;-3.64;100.00
73103;BME280;61294;65.988;29.172;2023-01-15T05:51:43;96500.31;;;-3.74;100.00
73103;BME280;61294;65.988;29.172;2023-01-15T05:54:15;96524.56;;;-3.60;100.00
73103;BME280;61294;65.988;29.172;2023-01-15T05:56:42;96527.09;;;-3.63;100.00
73103;BME280;61294;65.988;29.172;2023-01-15T05:59:10;96520.28;;;-3.59;100.00
73103;BME280;61294;65.988;29.172;2023-01-15T06:01:36;96495.19;;;-3.73;100.00
73103;BME280;61294;65.988;29.172;2023-01-15T06:04:04;96506.59;;;-3.57;100.00
73103;BME280;61294;65.988;29.172;2023-01-15T06:06:30;96490.91;;;-3.72;100.00
73103;BME280;61294;65.988;29.172;2023-01-15T06:08:56;96508.19;;;-3.65;100.00
73103;BME280;61294;65.988;29.172;2023-01-15T06:11:22;96515.91;;;-3.64;100.00
73103;BME280;61294;65.988;29.172;2023-01-15T06:13:48;96519.44;;;-3.58;100.00
73103;BME280;61294;65.988;29.172;2023-01-15T06:16:14;96510.91;;;-3.57;100.00
73103;BME280;61294;65.988;29.172;2023-01-15T06:18:40;96510.00;;;-3.58;100.00
73103;BME280;61294;65.988;29.172;2023-01-15T06:21:08;96480.63;;;-3.72;100.00
73103;BME280;61294;65.988;29.172;2023-01-15T06:23:35;96493.72;;;-3.58;100.00
73103;BME280;61294;65.988;29.172;2023-01-15T06:26:03;96497.22;;;-3.55;100.00
73103;BME280;61294;65.988;29.172;2023-01-15T06:28:29;96497.16;;;-3.56;100.00
73103;BME280;61294;65.988;29.172;2023-01-15T06:30:55;96484.22;;;-3.61;100.00
73103;BME280;61294;65.988;29.172;2023-01-15T06:33:21;96496.31;;;-3.57;100.00
73103;BME280;61294;65.988;29.172;2023-01-15T06:35:47;96471.25;;;-3.69;100.00
73103;BME280;61294;65.988;29.172;2023-01-15T06:38:13;96498.91;;;-3.55;100.00
73103;BME280;61294;65.988;29.172;2023-01-15T06:40:38;96486.84;;;-3.58;100.00
73103;BME280;61294;65.988;29.172;2023-01-15T06:43:04;96498.91;;;-3.55;100.00
73103;BME280;61294;65.988;29.172;2023-01-15T06:45:48;96495.44;;;-3.57;100.00
73103;BME280;61294;65.988;29.172;2023-01-15T06:48:49;96469.50;;;-3.70;100.00
73103;BME280;61294;65.988;29.172;2023-01-15T06:51:15;96498.94;;;-3.52;100.00
73103;BME280;61294;65.988;29.172;2023-01-15T06:53:44;96463.56;;;-3.67;100.00
73103;BME280;61294;65.988;29.172;2023-01-15T06:56:12;96491.31;;;-3.48;100.00
73103;BME280;61294;65.988;29.172;2023-01-15T06:58:41;96489.59;;;-3.49;100.00
73103;BME280;61294;65.988;29.172;2023-01-15T07:01:13;96493.00;;;-3.48;100.00
73103;BME280;61294;65.988;29.172;2023-01-15T07:03:39;96487.81;;;-3.51;100.00
73103;BME280;61294;65.988;29.172;2023-01-15T07:06:10;96497.31;;;-3.47;100.00
73103;BME280;61294;65.988;29.172;2023-01-15T07:08:37;96487.84;;;-3.48;100.00
73103;BME280;61294;65.988;29.172;2023-01-15T07:11:08;96493.97;;;-3.43;100.00
73103;BME280;61294;65.988;29.172;2023-01-15T07:13:34;96495.66;;;-3.43;100.00
73103;BME280;61294;65.988;29.172;2023-01-15T07:16:01;96473.09;;;-3.60;100.00
73103;BME280;61294;65.988;29.172;2023-01-15T07:18:29;96471.44;;;-3.56;100.00
73103;BME280;61294;65.988;29.172;2023-01-15T07:20:56;96501.69;;;-3.43;100.00
73103;BME280;61294;65.988;29.172;2023-01-15T07:23:26;96489.66;;;-3.42;100.00
73103;BME280;61294;65.988;29.172;2023-01-15T07:25:53;96486.28;;;-3.40;100.00
73103;BME280;61294;65.988;29.172;2023-01-15T07:28:20;96499.16;;;-3.38;100.00
73103;BME280;61294;65.988;29.172;2023-01-15T07:30:46;96487.00;;;-3.49;100.00
73103;BME280;61294;65.988;29.172;2023-01-15T07:33:13;96509.50;;;-3.35;100.00
73103;BME280;61294;65.988;29.172;2023-01-15T07:35:39;96505.16;;;-3.38;100.00
73103;BME280;61294;65.988;29.172;2023-01-15T07:38:05;96508.63;;;-3.37;100.00
73103;BME280;61294;65.988;29.172;2023-01-15T07:40:31;96516.38;;;-3.36;100.00
73103;BME280;61294;65.988;29.172;2023-01-15T07:42:57;96512.09;;;-3.35;100.00
73103;BME280;61294;65.988;29.172;2023-01-15T07:45:42;96513.84;;;-3.33;100.00
73103;BME280;61294;65.988;29.172;2023-01-15T07:48:26;96511.28;;;-3.33;100.00
73103;BME280;61294;65.988;29.172;2023-01-15T07:51:11;96515.59;;;-3.30;100.00
73103;BME280;61294;65.988;29.172;2023-01-15T07:53:36;96488.84;;;-3.41;100.00
73103;BME280;61294;65.988;29.172;2023-01-15T07:56:02;96507.88;;;-3.30;100.00
73103;BME280;61294;65.988;29.172;2023-01-15T07:58:28;96505.31;;;-3.28;100.00
73103;BME280;61294;65.988;29.172;2023-01-15T08:00:53;96468.19;;;-3.44;100.00
73103;BME280;61294;65.988;29.172;2023-01-15T08:03:19;96462.16;;;-3.45;100.00
73103;BME280;61294;65.988;29.172;2023-01-15T08:05:45;96496.81;;;-3.24;100.00
73103;BME280;61294;65.988;29.172;2023-01-15T08:08:15;96495.09;;;-3.22;100.00
73103;BME280;61294;65.988;29.172;2023-01-15T08:10:41;96499.38;;;-3.24;100.00
73103;BME280;61294;65.988;29.172;2023-01-15T08:13:30;96495.09;;;-3.24;100.00
73103;BME280;61294;65.988;29.172;2023-01-15T08:16:14;96481.34;;;-3.26;100.00
73103;BME280;61294;65.988;29.172;2023-01-15T08:18:40;96495.16;;;-3.19;100.00
73103;BME280;61294;65.988;29.172;2023-01-15T08:21:12;96480.56;;;-3.20;100.00
73103;BME280;61294;65.988;29.172;2023-01-15T08:23:40;96472.69;;;-3.30;100.00
73103;BME280;61294;65.988;29.172;2023-01-15T08:26:07;96495.19;;;-3.18;100.00
73103;BME280;61294;65.988;29.172;2023-01-15T08:28:33;96491.78;;;-3.15;100.00
73103;BME280;61294;65.988;29.172;2023-01-15T08:31:04;96491.78;;;-3.14;100.00
73103;BME280;61294;65.988;29.172;2023-01-15T08:33:30;96478.06;;;-3.14;100.00
73103;BME280;61294;65.988;29.172;2023-01-15T08:35:57;96482.34;;;-3.16;100.00
73103;BME280;61294;65.988;29.172;2023-01-15T08:38:23;96485.81;;;-3.11;100.00
73103;BME280;61294;65.988;29.172;2023-01-15T08:40:52;96479.84;;;-3.10;100.00
73103;BME280;61294;65.988;29.172;2023-01-15T08:43:28;96482.44;;;-3.07;100.00
73103;BME280;61294;65.988;29.172;2023-01-15T08:45:56;96483.34;;;-3.06;100.00
73103;BME280;61294;65.988;29.172;2023-01-15T08:48:25;96459.19;;;-3.15;100.00
73103;BME280;61294;65.988;29.172;2023-01-15T08:50:51;96484.22;;;-3.03;100.00
73103;BME280;61294;65.988;29.172;2023-01-15T08:53:18;96479.09;;;-3.01;100.00
73103;BME280;61294;65.988;29.172;2023-01-15T08:55:45;96480.00;;;-2.99;100.00
73103;BME280;61294;65.988;29.172;2023-01-15T08:58:11;96488.59;;;-2.97;100.00
73103;BME280;61294;65.988;29.172;2023-01-15T09:00:37;96458.41;;;-3.07;100.00
73103;BME280;61294;65.988;29.172;2023-01-15T09:03:02;96476.59;;;-2.95;100.00
73103;BME280;61294;65.988;29.172;2023-01-15T09:05:28;96446.38;;;-3.08;100.00
73103;BME280;61294;65.988;29.172;2023-01-15T09:07:54;96481.81;;;-2.92;100.00
73103;BME280;61294;65.988;29.172;2023-01-15T09:10:21;96476.69;;;-2.89;100.00
73103;BME280;61294;65.988;29.172;2023-01-15T09:12:47;96448.19;;;-3.00;100.00
73103;BME280;61294;65.988;29.172;2023-01-15T09:15:13;96471.56;;;-2.86;100.00
73103;BME280;61294;65.988;29.172;2023-01-15T09:17:38;96478.44;;;-2.86;100.00
73103;BME280;61294;65.988;29.172;2023-01-15T09:20:07;96449.97;;;-2.97;100.00
73103;BME280;61294;65.988;29.172;2023-01-15T09:22:33;96466.44;;;-2.83;100.00
73103;BME280;61294;65.988;29.172;2023-01-15T09:24:59;96439.69;;;-2.92;100.00
73103;BME280;61294;65.988;29.172;2023-01-15T09:27:26;96474.22;;;-2.78;100.00
73103;BME280;61294;65.988;29.172;2023-01-15T09:29:52;96452.69;;;-2.86;100.00
73103;BME280;61294;65.988;29.172;2023-01-15T09:32:18;96461.38;;;-2.77;100.00
73103;BME280;61294;65.988;29.172;2023-01-15T09:34:44;96454.50;;;-2.78;100.00
73103;BME280;61294;65.988;29.172;2023-01-15T09:37:10;96460.53;;;-2.75;100.00
73103;BME280;61294;65.988;29.172;2023-01-15T09:39:39;96430.34;;;-2.86;100.00
73103;BME280;61294;65.988;29.172;2023-01-15T09:55:47;96438.34;;;-2.63;100.00
73103;BME280;61294;65.988;29.172;2023-01-15T09:58:16;96423.75;;;-2.62;100.00
73103;BME280;61294;65.988;29.172;2023-01-15T10:00:48;96407.34;;;-2.70;100.00
73103;BME280;61294;65.988;29.172;2023-01-15T10:03:30;96415.19;;;-2.58;100.00
73103;BME280;61294;65.988;29.172;2023-01-15T10:06:16;96407.41;;;-2.63;100.00
73103;BME280;61294;65.988;29.172;2023-01-15T10:08:49;96416.94;;;-2.55;100.00
73103;BME280;61294;65.988;29.172;2023-01-15T10:13:42;96414.38;;;-2.55;100.00
73103;BME280;61294;65.988;29.172;2023-01-15T10:16:11;96412.72;;;-2.50;100.00
73103;BME280;61294;65.988;29.172;2023-01-15T10:18:38;96416.13;;;-2.51;100.00
73103;BME280;61294;65.988;29.172;2023-01-15T10:26:57;96422.22;;;-2.46;100.00
73103;BME280;61294;65.988;29.172;2023-01-15T10:29:42;96410.97;;;-2.50;100.00
73103;BME280;61294;65.988;29.172;2023-01-15T10:35:00;96410.19;;;-2.43;100.00
73103;BME280;61294;65.988;29.172;2023-01-15T10:45:43;96364.66;;;-2.44;100.00
73103;BME280;61294;65.988;29.172;2023-01-15T10:48:24;96392.28;;;-2.29;100.00
73103;BME280;61294;65.988;29.172;2023-01-15T10:50:54;96381.16;;;-2.26;100.00
73103;BME280;61294;65.988;29.172;2023-01-15T10:53:33;96380.28;;;-2.27;100.00
73103;BME280;61294;65.988;29.172;2023-01-15T11:01:57;96363.13;;;-2.23;100.00
73103;BME280;61294;65.988;29.172;2023-01-15T11:04:30;96366.56;;;-2.21;100.00
73103;BME280;61294;65.988;29.172;2023-01-15T11:06:56;96370.88;;;-2.17;100.00
73103;BME280;61294;65.988;29.172;2023-01-15T11:09:25;96361.44;;;-2.19;100.00
73103;BME280;61294;65.988;29.172;2023-01-15T11:12:21;96351.03;;;-2.27;100.00
73103;BME280;61294;65.988;29.172;2023-01-15T11:14:48;96352.81;;;-2.21;100.00
73103;BME280;61294;65.988;29.172;2023-01-15T11:17:41;96338.97;;;-2.28;100.00
73103;BME280;61294;65.988;29.172;2023-01-15T11:20:31;96329.47;;;-2.34;100.00
73103;BME280;61294;65.988;29.172;2023-01-15T11:23:10;96355.41;;;-2.17;100.00
73103;BME280;61294;65.988;29.172;2023-01-15T11:25:38;96349.41;;;-2.16;100.00
73103;BME280;61294;65.988;29.172;2023-01-15T11:28:09;96346.81;;;-2.19;100.00
73103;BME280;61294;65.988;29.172;2023-01-15T11:30:40;96322.66;;;-2.29;100.00
73103;BME280;61294;65.988;29.172;2023-01-15T11:33:23;96335.69;;;-2.15;100.00
73103;BME280;61294;65.988;29.172;2023-01-15T11:35:53;96340.00;;;-2.14;100.00
73103;BME280;61294;65.988;29.172;2023-01-15T11:38:41;96313.25;;;-2.25;100.00
73103;BME280;61294;65.988;29.172;2023-01-15T11:41:31;96330.53;;;-2.12;100.00
73103;BME280;61294;65.988;29.172;2023-01-15T11:44:18;96317.63;;;-2.13;100.00
73103;BME280;61294;65.988;29.172;2023-01-15T11:47:08;96298.63;;;-2.26;100.00
73103;BME280;61294;65.988;29.172;2023-01-15T11:50:17;96309.03;;;-2.14;100.00
73103;BME280;61294;65.988;29.172;2023-01-15T11:53:01;96312.44;;;-2.16;100.00
73103;BME280;61294;65.988;29.172;2023-01-15T11:55:27;96305.56;;;-2.17;100.00
73103;BME280;61294;65.988;29.172;2023-01-15T11:57:54;96308.97;;;-2.17;100.00
73103;BME280;61294;65.988;29.172;2023-01-15T12:00:22;96309.88;;;-2.16;100.00
73103;BME280;61294;65.988;29.172;2023-01-15T12:02:52;96304.69;;;-2.18;100.00
73103;BME280;61294;65.988;29.172;2023-01-15T12:05:28;96303.81;;;-2.18;100.00
73103;BME280;61294;65.988;29.172;2023-01-15T12:07:57;96308.16;;;-2.16;100.00
73103;BME280;61294;65.988;29.172;2023-01-15T12:10:27;96305.53;;;-2.19;100.00
73103;BME280;61294;65.988;29.172;2023-01-15T12:13:27;96302.16;;;-2.15;100.00
73103;BME280;61294;65.988;29.172;2023-01-15T12:16:00;96294.38;;;-2.18;100.00
73103;BME280;61294;65.988;29.172;2023-01-15T12:21:42;96290.09;;;-2.17;100.00
73103;BME280;61294;65.988;29.172;2023-01-15T12:24:35;96302.16;;;-2.15;100.00
73103;BME280;61294;65.988;29.172;2023-01-15T12:29:45;96306.47;;;-2.11;100.00
73103;BME280;61294;65.988;29.172;2023-01-15T12:32:20;96296.16;;;-2.11;100.00
73103;BME280;61294;65.988;29.172;2023-01-15T12:35:06;96285.84;;;-2.11;100.00
73103;BME280;61294;65.988;29.172;2023-01-15T12:37:51;96271.22;;;-2.10;100.00
73103;BME280;61294;65.988;29.172;2023-01-15T12:40:23;96244.47;;;-2.24;100.00
73103;BME280;61294;65.988;29.172;2023-01-15T12:42:54;96226.41;;;-2.24;100.00
73103;BME280;61294;65.988;29.172;2023-01-15T12:45:43;96243.69;;;-2.11;100.00
73103;BME280;61294;65.988;29.172;2023-01-15T12:48:28;96237.63;;;-2.19;100.00
73103;BME280;61294;65.988;29.172;2023-01-15T12:51:02;96241.06;;;-2.17;100.00
73103;BME280;61294;65.988;29.172;2023-01-15T12:56:11;96244.59;;;-2.08;100.00
73103;BME280;61294;65.988;29.172;2023-01-15T12:59:05;96220.47;;;-2.11;100.00
73103;BME280;61294;65.988;29.172;2023-01-15T13:01:47;96223.03;;;-2.11;100.00
73103;BME280;61294;65.988;29.172;2023-01-15T13:04:27;96223.09;;;-2.06;100.00
73103;BME280;61294;65.988;29.172;2023-01-15T13:10:25;96210.22;;;-2.03;100.00
73103;BME280;61294;65.988;29.172;2023-01-15T13:12:53;96201.56;;;-2.07;100.00
73103;BME280;61294;65.988;29.172;2023-01-15T13:15:24;96176.56;;;-2.23;100.00
73103;BME280;61294;65.988;29.172;2023-01-15T13:20:51;96161.13;;;-2.16;100.00
73103;BME280;61294;65.988;29.172;2023-01-15T13:39:57;96131.91;;;-2.13;100.00
73103;BME280;61294;65.988;29.172;2023-01-15T13:42:27;96153.47;;;-2.03;100.00
73103;BME280;61294;65.988;29.172;2023-01-15T13:45:35;96137.97;;;-2.06;100.00
73103;BME280;61294;65.988;29.172;2023-01-15T13:48:10;96144.84;;;-2.02;100.00
73103;BME280;61294;65.988;29.172;2023-01-15T13:50:50;96106.97;;;-2.11;100.00
73103;BME280;61294;65.988;29.172;2023-01-15T13:56:09;96097.53;;;-2.14;100.00
73103;BME280;61294;65.988;29.172;2023-01-15T13:58:39;96113.88;;;-2.02;100.00
73103;BME280;61294;65.988;29.172;2023-01-15T14:04:03;96082.06;;;-2.04;100.00
73103;BME280;61294;65.988;29.172;2023-01-15T14:06:46;96065.69;;;-2.17;100.00
73103;BME280;61294;65.988;29.172;2023-01-15T14:11:57;96066.59;;;-2.06;100.00
73103;BME280;61294;65.988;29.172;2023-01-15T14:14:39;96059.69;;;-2.12;100.00
73103;BME280;61294;65.988;29.172;2023-01-15T14:26:01;96030.44;;;-2.20;100.00
73103;BME280;61294;65.988;29.172;2023-01-15T14:34:14;96017.59;;;-2.04;100.00
73103;BME280;61294;65.988;29.172;2023-01-15T14:36:57;96006.38;;;-2.10;100.00
73103;BME280;61294;65.988;29.172;2023-01-15T14:39:39;96020.16;;;-2.03;100.00
73103;BME280;61294;65.988;29.172;2023-01-15T14:45:04;95986.63;;;-2.06;100.00
73103;BME280;61294;65.988;29.172;2023-01-15T14:47:34;95937.59;;;-2.26;100.00
73103;BME280;61294;65.988;29.172;2023-01-15T15:01:12;95958.25;;;-2.04;100.00
73103;BME280;61294;65.988;29.172;2023-01-15T15:03:55;95931.59;;;-2.17;100.00
73103;BME280;61294;65.988;29.172;2023-01-15T15:06:24;95950.50;;;-2.01;100.00
73103;BME280;61294;65.988;29.172;2023-01-15T15:08:57;95949.66;;;-2.02;100.00
73103;BME280;61294;65.988;29.172;2023-01-15T15:11:34;95948.81;;;-2.01;100.00
73103;BME280;61294;65.988;29.172;2023-01-15T15:14:20;95936.75;;;-2.03;100.00
73103;BME280;61294;65.988;29.172;2023-01-15T15:16:49;95919.56;;;-2.00;100.00
73103;BME280;61294;65.988;29.172;2023-01-15T15:19:33;95892.88;;;-2.11;100.00
73103;BME280;61294;65.988;29.172;2023-01-15T15:22:03;95907.53;;;-2.01;100.00
73103;BME280;61294;65.988;29.172;2023-01-15T15:24:36;95874.00;;;-2.15;100.00